Home > Products > Valid Products > MTR

000
SAUS41 KCAR 281720
MTR40B
METAR K40B 281720Z AUTO VRB04G14KT 27/13 A2990 RMK AO1 SLP117
     T02660132 57010





000
SAUS41 KCAR 281657
MTRGNR
METAR KGNR 281656Z AUTO 00000KT 24/19 A2994 RMK AO1 SLP135 P0002
T02390194





000
SAUS41 KCAR 281657
MTRGNR
METAR KGNR 281656Z AUTO 00000KT 24/19 A2994 RMK AO1 SLP135 P0002
T02390194





000
SAUS41 KCAR 281616
MTR40B
METAR K40B 281616Z AUTO VRB04G13KT 26/13 A2991 RMK AO1 SLP123
     T02590134 56012





000
SAUS41 KCAR 281616
MTR40B
METAR K40B 281616Z AUTO VRB04G13KT 26/13 A2991 RMK AO1 SLP123
     T02590134 56012





000
SAUS41 KCAR 281558
MTRGNR
METAR KGNR 281556Z AUTO VRB05KT 24/17 A2995 RMK AO1 SLP138 T02440172





000
SAUS41 KCAR 281519
MTR40B
METAR K40B 281519Z AUTO 23006G11KT 090V310 25/13 A2992 RMK AO1
     SLP127 T02520130 57011





000
SAUS41 KCAR 281457
MTRGNR
METAR KGNR 281456Z AUTO 33007KT 23/18 A2996 RMK AO1 SLP141 T02330183
56003





000
SAUS41 KCAR 281419
MTR40B
METAR K40B 281419Z AUTO VRB03KT 24/17 A2993 RMK AO1 SLP130
     T02380170 58009





000
SAUS41 KCAR 281357
MTRGNR
METAR KGNR 281356Z AUTO VRB05KT 22/17 A2996 RMK AO1 SLP142 T02170172





000
SAUS41 KCAR 281316
MTR40B
METAR K40B 281316Z AUTO VRB02KT 21/17 A2995 RMK AO1 SLP137
     T02120170 57002





000
SAUS41 KCAR 281316
MTR40B
METAR K40B 281316Z AUTO VRB02KT 21/17 A2995 RMK AO1 SLP137
     T02120170 57002





000
SAUS41 KCAR 281257
MTRGNR
METAR KGNR 281256Z AUTO 00000KT 21/17 A2996 RMK AO1 SLP143 T02060172





000
SAUS41 KCAR 281257
MTRGNR
METAR KGNR 281256Z AUTO 00000KT 21/17 A2996 RMK AO1 SLP143 T02060172





000
SAUS41 KCAR 281220
MTR40B
METAR K40B 281220Z AUTO VRB03KT 20/17 A2996 RMK AO1 SLP141
     T02010169 10203 20144 52003 60000 70060





000
SAUS41 KCAR 281157
MTRGNR
METAR KGNR 281156Z AUTO 03004KT 19/16 A2997 RMK AO1 SLP145 60066
70069 T01890161 10189 20144 56012





000
SAUS41 KCAR 281157
MTRGNR
METAR KGNR 281156Z AUTO 03004KT 19/16 A2997 RMK AO1 SLP145 60066
70069 T01890161 10189 20144 56012





000
SAUS41 KCAR 281120
MTR40B
METAR K40B 281120Z AUTO 00000KT 18/15 A2996 RMK AO1 SLP142
     T01780155 52007





000
SAUS41 KCAR 281057
MTRGNR
METAR KGNR 281056Z AUTO 00000KT 16/16 A2997 RMK AO1 SLP147 T01560156





000
SAUS41 KCAR 281016
MTR40B
METAR K40B 281016Z AUTO VRB03KT 16/14 A2995 RMK AO1 SLP139
     T01570144 55002





000
SAUS41 KCAR 281016
MTR40B
METAR K40B 281016Z AUTO VRB03KT 16/14 A2995 RMK AO1 SLP139
     T01570144 55002





000
SAUS41 KCAR 280957
MTRGNR
METAR KGNR 280956Z AUTO 00000KT 15/15 A2997 RMK AO1 SLP148 P0003
T01500150





000
SAUS41 KCAR 280921
MTR40B
METAR K40B 280921Z AUTO VRB02KT 15/15 A2995 RMK AO1 SLP137
     T01490147 55002 P0000 60000





000
SAUS41 KCAR 280858
MTRGNR
METAR KGNR 280856Z AUTO 35003KT 16/14 A3000 RMK AO1 SLP157 P0042
60063 T01610144 53009





000
SAUS41 KCAR 280821
MTR40B
METAR K40B 280821Z AUTO VRB02KT 16/15 A2994 RMK AO1 SLP133
     T01570150 56012





000
SAUS41 KCAR 280757
MTRGNR
METAR KGNR 280756Z AUTO VRB05KT 17/16 A2997 RMK AO1 SLP146 P0019
T01670161





000
SAUS41 KCAR 280716
MTR40B
METAR K40B 280716Z AUTO VRB02KT 16/15 A2996 RMK AO1 SLP139
     T01580153 58004





000
SAUS41 KCAR 280716
MTR40B
METAR K40B 280716Z AUTO VRB02KT 16/15 A2996 RMK AO1 SLP139
     T01580153 58004





000
SAUS41 KCAR 280658
MTRGNR
METAR KGNR 280656Z AUTO 00000KT 17/17 A2998 RMK AO1 SLP148 P0002
T01670167





000
SAUS41 KCAR 280658
MTRGNR
METAR KGNR 280656Z AUTO 00000KT 17/17 A2998 RMK AO1 SLP148 P0002
T01670167





000
SAUS41 KCAR 280619
MTR40B
METAR K40B 280619Z AUTO 00000KT 16/16 A2995 RMK AO1 SLP138
     T01610158 10184 20157 58005 60006





000
SAUS41 KCAR 280557
MTRGNR
METAR KGNR 280556Z AUTO 00000KT 17/16 A2997 RMK AO1 SLP147 60002
T01670161 10189 20167 58004





000
SAUS41 KCAR 280519
MTR40B
METAR K40B 280519Z AUTO VRB03KT 16/16 A2998 RMK AO1 SLP145
     T01640160 402480131 50003





000
SAUS41 KCAR 280458
MTRGNR
METAR KGNR 280456Z AUTO 06007KT 17/17 A2999 RMK AO1 SLP153 P0002
T01670167 402390150





000
SAUS41 KCAR 280416
MTR40B
METAR K40B 280416Z AUTO 00000KT 17/16 A2997 RMK AO1 SLP141
     T01670163 50003 P0005





000
SAUS41 KCAR 280416
MTR40B
METAR K40B 280416Z AUTO 00000KT 17/16 A2997 RMK AO1 SLP141
     T01670163 50003 P0005





000
SAUS41 KCAR 280357
MTRGNR
METAR KGNR 280356Z AUTO 32003KT 17/16 A3000 RMK AO1 SLP158 T01670156





000
SAUS41 KCAR 280319
MTR40B
METAR K40B 280319Z AUTO 19010G15KT 150V230 18/17 A2997 RMK AO1
     SLP141 T01800167 55001 P0000 60000





000
SAUS41 KCAR 280258
MTRGNR
METAR KGNR 280256Z AUTO 00000KT 17/16 A2999 RMK AO1 SLP155 T01670161
58004





000
SAUS41 KCAR 280219
MTR40B
METAR K40B 280219Z AUTO 00000KT 17/17 A2997 RMK AO1 SLP140
     T01730166 55001





000
SAUS41 KCAR 280157
MTRGNR
METAR KGNR 280156Z AUTO 18004KT 18/18 A3000 RMK AO1 SLP158 T01780178





000
SAUS41 KCAR 280157
MTRGNR
METAR KGNR 280156Z AUTO 18004KT 18/18 A3000 RMK AO1 SLP158 T01780178





000
SAUS41 KCAR 280116
MTR40B
METAR K40B 280116Z AUTO 00000KT 17/17 A2996 RMK AO1 SLP137
     T01710168 58005





000
SAUS41 KCAR 280116
MTR40B
METAR K40B 280116Z AUTO 00000KT 17/17 A2996 RMK AO1 SLP137
     T01710168 58005





000
SAUS41 KCAR 280058
MTRGNR
METAR KGNR 280056Z AUTO 00000KT 18/17 A3000 RMK AO1 SLP158 T01830172





000
SAUS41 KCAR 280016
MTR40B
METAR K40B 280016Z AUTO 00000KT 18/18 A2996 RMK AO1 SLP139
     T01840180 10237 20170 50002 60054





000
SAUS41 KCAR 280016
MTR40B
METAR K40B 280016Z AUTO 00000KT 18/18 A2996 RMK AO1 SLP139
     T01840180 10237 20170 50002 60054





000
SAUS41 KCAR 272357
MTRGNR
METAR KGNR 272356Z AUTO 17003KT 19/18 A3000 RMK AO1 SLP159 P0001
60001 T01890178 10239 20189 50006





000
SAUS41 KCAR 272258
MTRGNR
METAR KGNR 272256Z AUTO 08005KT 19/18 A3001 RMK AO1 SLP162 T01940178





000
SAUS41 KCAR 272216
MTR40B
METAR K40B 272216Z AUTO 00000KT 19/19 A2997 RMK AO1 SLP142
     T01900185 50005





000
SAUS41 KCAR 272157
MTRGNR
METAR KGNR 272156Z AUTO VRB03KT 21/18 A2999 RMK AO1 SLP155 T02060183





000
SAUS41 KCAR 272119
MTR40B
METAR K40B 272119Z AUTO 00000KT 19/18 A2996 RMK AO1 SLP138
     T01880184 58003 60053





000
SAUS41 KCAR 272057
MTRGNR
METAR KGNR 272056Z AUTO VRB04KT 22/18 A2998 RMK AO1 SLP151 T02220183
56008





000
SAUS41 KCAR 272057
MTRGNR
METAR KGNR 272056Z AUTO VRB04KT 22/18 A2998 RMK AO1 SLP151 T02220183
56008





000
SAUS41 KCAR 272022
MTR40B
METAR K40B 272022Z AUTO VRB02KT 18/17 A2996 RMK AO1 SLP141
     T01780174 55002 P0053





000
SAUS41 KCAR 271958
MTRGNR
METAR KGNR 271956Z AUTO 23/19 A2998 RMK AO1 SLP149 T02330189





000
SAUS41 KCAR 271958
MTRGNR
METAR KGNR 271956Z AUTO 23/19 A2998 RMK AO1 SLP149 T02330189





000
SAUS41 KCAR 271916
MTR40B
METAR K40B 271916Z AUTO 18011KT 21/17 A2995 RMK AO1 SLP137
     T02100170 56013





000
SAUS41 KCAR 271916
MTR40B
METAR K40B 271916Z AUTO 18011KT 21/17 A2995 RMK AO1 SLP137
     T02100170 56013





000
SAUS41 KCAR 271857
MTRGNR
METAR KGNR 271856Z AUTO VRB06KT 22/19 A3000 RMK AO1 SLP158 T02220189





000
SAUS41 KCAR 271857
MTRGNR
METAR KGNR 271856Z AUTO VRB06KT 22/19 A3000 RMK AO1 SLP158 T02220189





000
SAUS41 KCAR 271819
MTR40B
METAR K40B 271819Z AUTO VRB03KT 23/18 A2997 RMK AO1 SLP142
     T02310184 10248 20172 56012





000
SAUS41 KCAR 271758
MTRGNR
METAR KGNR 271756Z AUTO VRB05KT 22/18 A3001 RMK AO1 SLP159 T02170183
10222 20156 58013





000
SAUS41 KCAR 271758
MTRGNR
METAR KGNR 271756Z AUTO VRB05KT 22/18 A3001 RMK AO1 SLP159 T02170183
10222 20156 58013





000
SAUS41 KCAR 271719
MTR40B
METAR K40B 271719Z AUTO 11006KT 080V150 23/19 A2997 RMK AO1 SLP145
     T02330188 57016





000
SAUS41 KCAR 271657
MTRGNR
METAR KGNR 271656Z AUTO 12006KT 21/18 A3003 RMK AO1 SLP167 T02060183





000
SAUS41 KCAR 271657
MTRGNR
METAR KGNR 271656Z AUTO 12006KT 21/18 A3003 RMK AO1 SLP167 T02060183





000
SAUS41 KCAR 271616
MTR40B
METAR K40B 271616Z AUTO VRB03KT 23/19 A2999 RMK AO1 SLP153
     T02350188 58008





000
SAUS41 KCAR 271616
MTR40B
METAR K40B 271616Z AUTO VRB03KT 23/19 A2999 RMK AO1 SLP153
     T02350188 58008





000
SAUS41 KCAR 271557
MTRGNR
METAR KGNR 271556Z AUTO VRB03KT 19/18 A3004 RMK AO1 SLP173 T01940178





000
SAUS41 KCAR 271519
MTR40B
METAR K40B 271519Z AUTO VRB02KT 22/18 A3000 RMK AO1 SLP157
     T02240178 58004





000
SAUS41 KCAR 271458
MTRGNR
METAR KGNR 271456Z AUTO VRB03KT 18/17 A3005 RMK AO1 SLP175 T01780172
50003





000
SAUS41 KCAR 271358
MTRGNR
METAR KGNR 271356Z AUTO 00000KT 16/16 A3005 RMK AO1 SLP176 T01610161





000
SAUS41 KCAR 271358
MTRGNR
METAR KGNR 271356Z AUTO 00000KT 16/16 A3005 RMK AO1 SLP176 T01610161





000
SAUS41 KCAR 271316
MTR40B
METAR K40B 271316Z AUTO VRB03KT 19/18 A3002 RMK AO1 SLP163
     T01870177 51006





000
SAUS41 KCAR 271257
MTRGNR
METAR KGNR 271256Z AUTO 00000KT 16/16 A3004 RMK AO1 SLP174 T01560156





000
SAUS41 KCAR 271220
MTR40B
METAR K40B 271220Z AUTO 00000KT 17/17 A3002 RMK AO1 SLP163
     T01730166 10172 20131 52011 70012





000
SAUS41 KCAR 271157
MTRGNR
METAR KGNR 271156Z AUTO 17003KT 16/16 A3004 RMK AO1 SLP172 70004
T01560156 10156 20150 53010





000
SAUS41 KCAR 271119
MTR40B
METAR K40B 271119Z AUTO VRB03KT 16/16 A3000 RMK AO1 SLP159
     T01600156 52009





000
SAUS41 KCAR 271058
MTRGNR
METAR KGNR 271056Z AUTO 18004KT 15/15 A3002 RMK AO1 SLP169 T01500150





000
SAUS41 KCAR 271016
MTR40B
METAR K40B 271016Z AUTO 00000KT 14/14 A3000 RMK AO1 SLP156
     T01410140 53005





000
SAUS41 KCAR 270957
MTRGNR
METAR KGNR 270956Z AUTO 19003KT 15/15 A3001 RMK AO1 SLP164 T01500150





000
SAUS41 KCAR 270957
MTRGNR
METAR KGNR 270956Z AUTO 19003KT 15/15 A3001 RMK AO1 SLP164 T01500150





000
SAUS41 KCAR 270919
MTR40B
METAR K40B 270919Z AUTO 00000KT 14/13 A2998 RMK AO1 SLP151
     T01360134 57002





000
SAUS41 KCAR 270858
MTRGNR
METAR KGNR 270856Z AUTO 18003KT 15/15 A3000 RMK AO1 SLP162 T01500150
55001





000
SAUS41 KCAR 270821
MTR40B
METAR K40B 270821Z AUTO 00000KT 15/15 A2998 RMK AO1 SLP148
     T01500146 57004





000
SAUS41 KCAR 270821
MTR40B
METAR K40B 270821Z AUTO 00000KT 15/15 A2998 RMK AO1 SLP148
     T01500146 57004





000
SAUS41 KCAR 270757
MTRGNR
METAR KGNR 270756Z AUTO 00000KT 15/15 A3000 RMK AO1 SLP160 T01500150





000
SAUS41 KCAR 270757
MTRGNR
METAR KGNR 270756Z AUTO 00000KT 15/15 A3000 RMK AO1 SLP160 T01500150





000
SAUS41 KCAR 270716
MTR40B
METAR K40B 270716Z AUTO 00000KT 15/15 A2998 RMK AO1 SLP151
     T01540150 57004





000
SAUS41 KCAR 270658
MTRGNR
METAR KGNR 270656Z AUTO 00000KT 15/15 A3000 RMK AO1 SLP161 T01500150





000
SAUS41 KCAR 270658
MTRGNR
METAR KGNR 270656Z AUTO 00000KT 15/15 A3000 RMK AO1 SLP161 T01500150





000
SAUS41 KCAR 270619
MTR40B
METAR K40B 270619Z AUTO 00000KT 16/16 A2999 RMK AO1 SLP152
     T01600155 10167 20159 57002





000
SAUS41 KCAR 270619
MTR40B
METAR K40B 270619Z AUTO 00000KT 16/16 A2999 RMK AO1 SLP152
     T01600155 10167 20159 57002





000
SAUS41 KCAR 270557
MTRGNR
METAR KGNR 270556Z AUTO 00000KT 15/15 A3001 RMK AO1 SLP164 T01500150
10150 20150 58004





000
SAUS41 KCAR 270519
MTR40B
METAR K40B 270519Z AUTO 00000KT 16/16 A2999 RMK AO1 SLP153
     T01610156 401700142 50002





000
SAUS41 KCAR 270519
MTR40B
METAR K40B 270519Z AUTO 00000KT 16/16 A2999 RMK AO1 SLP153
     T01610156 401700142 50002





000
SAUS41 KCAR 270458
MTRGNR
METAR KGNR 270456Z AUTO 00000KT 15/15 A3002 RMK AO1 SLP168 T01500150
401560122





000
SAUS41 KCAR 270416
MTR40B
METAR K40B 270416Z AUTO 00000KT 16/16 A3000 RMK AO1 SLP155
     T01620156 52002





000
SAUS41 KCAR 270416
MTR40B
METAR K40B 270416Z AUTO 00000KT 16/16 A3000 RMK AO1 SLP155
     T01620156 52002





000
SAUS41 KCAR 270357
MTRGNR
METAR KGNR 270356Z AUTO 00000KT 15/15 A3001 RMK AO1 SLP166 T01500150





000
SAUS41 KCAR 270319
MTR40B
METAR K40B 270319Z AUTO VRB04KT 16/16 A2999 RMK AO1 SLP154
     T01650156 53005





000
SAUS41 KCAR 270258
MTRGNR
METAR KGNR 270256Z AUTO 00000KT 15/15 A3002 RMK AO1 SLP169 T01500150
51003





000
SAUS41 KCAR 270219
MTR40B
METAR K40B 270219Z AUTO 17007KT 17/16 A2998 RMK AO1 SLP151
     T01650157 50004





000
SAUS41 KCAR 270157
MTRGNR
METAR KGNR 270156Z AUTO 00000KT 15/15 A3002 RMK AO1 SLP168 T01500150





000
SAUS41 KCAR 270116
MTR40B
METAR K40B 270116Z AUTO VRB05KT 17/16 A2999 RMK AO1 SLP153
     T01660157 53008





000
SAUS41 KCAR 270058
MTRGNR
METAR KGNR 270056Z AUTO 17004KT 15/15 A3002 RMK AO1 SLP168 T01500150





000
SAUS41 KCAR 270058
MTRGNR
METAR KGNR 270056Z AUTO 17004KT 15/15 A3002 RMK AO1 SLP168 T01500150





000
SAUS41 KCAR 270019
MTR40B
METAR K40B 270019Z AUTO 00000KT 17/16 A2998 RMK AO1 SLP150
     T01670156 10170 20156 52005





000
SAUS41 KCAR 270019
MTR40B
METAR K40B 270019Z AUTO 00000KT 17/16 A2998 RMK AO1 SLP150
     T01670156 10170 20156 52005





000
SAUS41 KCAR 262357
MTRGNR
METAR KGNR 262356Z AUTO VRB04KT 15/15 A3001 RMK AO1 SLP166 T01500150
10156 20139 53003





000
SAUS41 KCAR 262357
MTRGNR
METAR KGNR 262356Z AUTO VRB04KT 15/15 A3001 RMK AO1 SLP166 T01500150
10156 20139 53003





000
SAUS41 KCAR 262319
MTR40B
METAR K40B 262319Z AUTO VRB04KT 17/16 A2997 RMK AO1 SLP148
     T01670155 52002





000
SAUS41 KCAR 262319
MTR40B
METAR K40B 262319Z AUTO VRB04KT 17/16 A2997 RMK AO1 SLP148
     T01670155 52002





000
SAUS41 KCAR 262258
MTRGNR
METAR KGNR 262256Z AUTO VRB04KT 15/15 A3000 RMK AO1 SLP162 T01500150





000
SAUS41 KCAR 262216
MTR40B
METAR K40B 262216Z AUTO VRB04KT 17/16 A2996 RMK AO1 SLP145
     T01650155 54000





000
SAUS41 KCAR 262216
MTR40B
METAR K40B 262216Z AUTO VRB04KT 17/16 A2996 RMK AO1 SLP145
     T01650155 54000





000
SAUS41 KCAR 262157
MTRGNR
METAR KGNR 262156Z AUTO VRB03KT 16/15 A2999 RMK AO1 SLP158 T01560150





000
SAUS41 KCAR 262119
MTR40B
METAR K40B 262119Z AUTO 16007KT 130V200 17/16 A2996 RMK AO1 SLP145
     T01670156 54000





000
SAUS41 KCAR 262057
MTRGNR
METAR KGNR 262056Z AUTO VRB03KT 16/15 A3000 RMK AO1 SLP163 T01560150
58000





000
SAUS41 KCAR 262019
MTR40B
METAR K40B 262019Z AUTO 15006KT 120V190 16/15 A2997 RMK AO1 SLP147
     T01600151 54001





000
SAUS41 KCAR 261959
MTRGNR
METAR KGNR 261956Z AUTO VRB04KT 14/14 A3001 RMK AO1 SLP164 T01440144





000
SAUS41 KCAR 261959
MTRGNR
METAR KGNR 261956Z AUTO VRB04KT 14/14 A3001 RMK AO1 SLP164 T01440144





000
SAUS41 KCAR 261916
MTR40B
METAR K40B 261916Z AUTO 16009G13KT 16/15 A2996 RMK AO1 SLP146
     T01590149 57002





000
SAUS41 KCAR 261916
MTR40B
METAR K40B 261916Z AUTO 16009G13KT 16/15 A2996 RMK AO1 SLP146
     T01590149 57002





000
SAUS41 KCAR 261857
MTRGNR
METAR KGNR 261856Z AUTO VRB03KT 14/14 A3001 RMK AO1 SLP164 T01440144





000
SAUS41 KCAR 261819
MTR40B
METAR K40B 261819Z AUTO 16008G13KT 070V190 16/14 A2997 RMK AO1
     SLP146 T01570145 10158 20144 57004 P0011 60012





000
SAUS41 KCAR 261758
MTRGNR
METAR KGNR 261756Z AUTO 17004KT 14/14 A3000 RMK AO1 SLP163 60004
T01390139 10139 20122 58002





000
SAUS41 KCAR 261758
MTRGNR
METAR KGNR 261756Z AUTO 17004KT 14/14 A3000 RMK AO1 SLP163 60004
T01390139 10139 20122 58002





000
SAUS41 KCAR 261719
MTR40B
METAR K40B 261719Z AUTO 16008G16KT 120V190 15/14 A2997 RMK AO1
     SLP147 T01520144 57004





000
SAUS41 KCAR 261657
MTRGNR
METAR KGNR 261656Z AUTO VRB04KT 13/13 A3001 RMK AO1 SLP165 P0001
T01330133





000
SAUS41 KCAR 261657
MTRGNR
METAR KGNR 261656Z AUTO VRB04KT 13/13 A3001 RMK AO1 SLP165 P0001
T01330133





000
SAUS41 KCAR 261616
MTR40B
METAR K40B 261616Z AUTO 15007G17KT 100V180 16/14 A2997 RMK AO1
     SLP148 T01580142 57003





000
SAUS41 KCAR 261616
MTR40B
METAR K40B 261616Z AUTO 15007G17KT 100V180 16/14 A2997 RMK AO1
     SLP148 T01580142 57003





000
SAUS41 KCAR 261558
MTRGNR
METAR KGNR 261556Z AUTO VRB03KT 13/13 A3001 RMK AO1 SLP165 T01280128





000
SAUS41 KCAR 261558
MTRGNR
METAR KGNR 261556Z AUTO VRB03KT 13/13 A3001 RMK AO1 SLP165 T01280128





000
SAUS41 KCAR 261519
MTR40B
METAR K40B 261519Z AUTO VRB04KT 15/14 A2998 RMK AO1 SLP150
     T01530140 54000 60001





000
SAUS41 KCAR 261458
MTRGNR
METAR KGNR 261456Z AUTO VRB04KT 13/13 A3001 RMK AO1 SLP166 P0001
60003 T01280128 58000





000
SAUS41 KCAR 261419
MTR40B
METAR K40B 261419Z AUTO 16007G13KT 15/14 A2998 RMK AO1 SLP151
     T01520138 52003





000
SAUS41 KCAR 261358
MTRGNR
METAR KGNR 261356Z AUTO VRB04KT 13/13 A3001 RMK AO1 SLP166 P0001
T01280128





000
SAUS41 KCAR 261358
MTRGNR
METAR KGNR 261356Z AUTO VRB04KT 13/13 A3001 RMK AO1 SLP166 P0001
T01280128





000
SAUS41 KCAR 261316
MTR40B
METAR K40B 261316Z AUTO VRB05KT 15/14 A2998 RMK AO1 SLP152
     T01480136 52006 P0001





000
SAUS41 KCAR 261316
MTR40B
METAR K40B 261316Z AUTO VRB05KT 15/14 A2998 RMK AO1 SLP152
     T01480136 52006 P0001





000
SAUS41 KCAR 261257
MTRGNR
METAR KGNR 261256Z AUTO VRB03KT 12/12 A3002 RMK AO1 SLP169 P0001
T01220122





000
SAUS41 KCAR 261257
MTRGNR
METAR KGNR 261256Z AUTO VRB03KT 12/12 A3002 RMK AO1 SLP169 P0001
T01220122





000
SAUS41 KCAR 261219
MTR40B
METAR K40B 261219Z AUTO 14006G11KT 100V180 14/14 A2998 RMK AO1
     SLP150 T01440136 10154 20142 52005 P0009 60009 70009





000
SAUS41 KCAR 261157
MTRGNR
METAR KGNR 261156Z AUTO VRB04KT 12/12 A3001 RMK AO1 SLP166 T01220122
10139 20122 51004





000
SAUS41 KCAR 261157
MTRGNR
METAR KGNR 261156Z AUTO VRB04KT 12/12 A3001 RMK AO1 SLP166 T01220122
10139 20122 51004





000
SAUS41 KCAR 261119
MTR40B
METAR K40B 261119Z AUTO 15007G14KT 110V190 15/13 A2997 RMK AO1
     SLP147 T01470134 55001





000
SAUS41 KCAR 261058
MTRGNR
METAR KGNR 261056Z AUTO VRB03KT 12/12 A3001 RMK AO1 SLP164 T01220122





000
SAUS41 KCAR 261058
MTRGNR
METAR KGNR 261056Z AUTO VRB03KT 12/12 A3001 RMK AO1 SLP164 T01220122





000
SAUS41 KCAR 261016
MTR40B
METAR K40B 261016Z AUTO 14006G13KT 090V200 15/13 A2996 RMK AO1
     SLP145 T01520133 57004





000
SAUS41 KCAR 260957
MTRGNR
METAR KGNR 260956Z AUTO VRB03KT 12/12 A3001 RMK AO1 SLP163 T01220122





000
SAUS41 KCAR 260920
MTR40B
METAR K40B 260920Z AUTO 14008G13KT 090V170 15/14 A2996 RMK AO1
     SLP144 T01530136 57010





000
SAUS41 KCAR 260858
MTRGNR
METAR KGNR 260856Z AUTO 00000KT 12/12 A3000 RMK AO1 SLP161 T01220122
57003





000
SAUS41 KCAR 260858
MTRGNR
METAR KGNR 260856Z AUTO 00000KT 12/12 A3000 RMK AO1 SLP161 T01220122
57003





000
SAUS41 KCAR 260819
MTR40B
METAR K40B 260819Z AUTO VRB05KT 15/14 A2997 RMK AO1 SLP145
     T01510137 57012





000
SAUS41 KCAR 260757
MTRGNR
METAR KGNR 260756Z AUTO 18006KT 13/12 A3001 RMK AO1 SLP163 T01280122





000
SAUS41 KCAR 260757
MTRGNR
METAR KGNR 260756Z AUTO 18006KT 13/12 A3001 RMK AO1 SLP163 T01280122





000
SAUS41 KCAR 260716
MTR40B
METAR K40B 260716Z AUTO VRB05KT 15/14 A2998 RMK AO1 SLP149
     T01500136 57011





000
SAUS41 KCAR 260658
MTRGNR
METAR KGNR 260656Z AUTO VRB03KT 13/13 A3000 RMK AO1 SLP160 T01330128





000
SAUS41 KCAR 260658
MTRGNR
METAR KGNR 260656Z AUTO VRB03KT 13/13 A3000 RMK AO1 SLP160 T01330128





000
SAUS41 KCAR 260619
MTR40B
METAR K40B 260619Z AUTO VRB02KT 15/13 A2999 RMK AO1 SLP152
     T01490135 10161 20142 57010





000
SAUS41 KCAR 260619
MTR40B
METAR K40B 260619Z AUTO VRB02KT 15/13 A2999 RMK AO1 SLP152
     T01490135 10161 20142 57010





000
SAUS41 KCAR 260557
MTRGNR
METAR KGNR 260556Z AUTO VRB03KT 14/13 A3001 RMK AO1 SLP165 T01390133
10156 20139 58008





000
SAUS41 KCAR 260557
MTRGNR
METAR KGNR 260556Z AUTO VRB03KT 14/13 A3001 RMK AO1 SLP165 T01390133
10156 20139 58008





000
SAUS41 KCAR 260521
MTR40B
METAR K40B 260521Z AUTO 00000KT 15/13 A3000 RMK AO1 SLP156
     T01490133 401950113 57009





000
SAUS41 KCAR 260521
MTR40B
METAR K40B 260521Z AUTO 00000KT 15/13 A3000 RMK AO1 SLP156
     T01490133 401950113 57009





000
SAUS41 KCAR 260458
MTRGNR
METAR KGNR 260456Z AUTO 18005KT 14/14 A3002 RMK AO1 SLP168 T01440139
401890122





000
SAUS41 KCAR 260458
MTRGNR
METAR KGNR 260456Z AUTO 18005KT 14/14 A3002 RMK AO1 SLP168 T01440139
401890122





000
SAUS41 KCAR 260416
MTR40B
METAR K40B 260416Z AUTO VRB02KT 14/13 A3001 RMK AO1 SLP159
     T01440132 57006





000
SAUS41 KCAR 260357
MTRGNR
METAR KGNR 260356Z AUTO 17004KT 14/14 A3003 RMK AO1 SLP172 T01440144





000
SAUS41 KCAR 260320
MTR40B
METAR K40B 260320Z AUTO 00000KT 14/13 A3002 RMK AO1 SLP162
     T01420132 50002





000
SAUS41 KCAR 260320
MTR40B
METAR K40B 260320Z AUTO 00000KT 14/13 A3002 RMK AO1 SLP162
     T01420132 50002





000
SAUS41 KCAR 260258
MTRGNR
METAR KGNR 260256Z AUTO 00000KT 14/14 A3004 RMK AO1 SLP174 T01440144
51004





000
SAUS41 KCAR 260258
MTRGNR
METAR KGNR 260256Z AUTO 00000KT 14/14 A3004 RMK AO1 SLP174 T01440144
51004





000
SAUS41 KCAR 260221
MTR40B
METAR K40B 260221Z AUTO 00000KT 14/13 A3003 RMK AO1 SLP166
     T01450131 51008





000
SAUS41 KCAR 260157
MTRGNR
METAR KGNR 260156Z AUTO VRB04KT 14/14 A3004 RMK AO1 SLP174 T01440139





000
SAUS41 KCAR 260116
MTR40B
METAR K40B 260116Z AUTO VRB03KT 15/12 A3003 RMK AO1 SLP166
     T01510124 52009





000
SAUS41 KCAR 260116
MTR40B
METAR K40B 260116Z AUTO VRB03KT 15/12 A3003 RMK AO1 SLP166
     T01510124 52009





000
SAUS41 KCAR 260058
MTRGNR
METAR KGNR 260056Z AUTO VRB03KT 15/14 A3003 RMK AO1 SLP173 T01500139





000
SAUS41 KCAR 260058
MTRGNR
METAR KGNR 260056Z AUTO VRB03KT 15/14 A3003 RMK AO1 SLP173 T01500139





000
SAUS41 KCAR 260019
MTR40B
METAR K40B 260019Z AUTO VRB05KT 16/13 A3001 RMK AO1 SLP160
     T01600125 10195 20159 55001





000
SAUS41 KCAR 260019
MTR40B
METAR K40B 260019Z AUTO VRB05KT 16/13 A3001 RMK AO1 SLP160
     T01600125 10195 20159 55001





000
SAUS41 KCAR 252357
MTRGNR
METAR KGNR 252356Z AUTO 00000KT 16/14 A3002 RMK AO1 SLP170 T01560139
10189 20156 53001





000
SAUS41 KCAR 252357
MTRGNR
METAR KGNR 252356Z AUTO 00000KT 16/14 A3002 RMK AO1 SLP170 T01560139
10189 20156 53001





000
SAUS41 KCAR 252320
MTR40B
METAR K40B 252320Z AUTO VRB03KT 17/12 A3000 RMK AO1 SLP158
     T01720123 55005





000
SAUS41 KCAR 252257
MTRGNR
METAR KGNR 252256Z AUTO VRB03KT 16/14 A3001 RMK AO1 SLP165 T01610139





000
SAUS41 KCAR 252216
MTR40B
METAR K40B 252216Z AUTO VRB04KT 18/12 A3000 RMK AO1 SLP157
     T01830122 57011





000
SAUS41 KCAR 252157
MTRGNR
METAR KGNR 252156Z AUTO VRB03KT 17/14 A3001 RMK AO1 SLP165 T01670139





000
SAUS41 KCAR 252157
MTRGNR
METAR KGNR 252156Z AUTO VRB03KT 17/14 A3001 RMK AO1 SLP165 T01670139





000
SAUS41 KCAR 252121
MTR40B
METAR K40B 252121Z AUTO VRB04KT 19/12 A3001 RMK AO1 SLP161
     T01860116 57010





000
SAUS41 KCAR 252121
MTR40B
METAR K40B 252121Z AUTO VRB04KT 19/12 A3001 RMK AO1 SLP161
     T01860116 57010





000
SAUS41 KCAR 252057
MTRGNR
METAR KGNR 252056Z AUTO VRB05KT 18/13 A3002 RMK AO1 SLP167 T01780128
56006





000
SAUS41 KCAR 252021
MTR40B
METAR K40B 252021Z AUTO VRB05KT 19/13 A3002 RMK AO1 SLP166
     T01900126 57012





000
SAUS41 KCAR 252021
MTR40B
METAR K40B 252021Z AUTO VRB05KT 19/13 A3002 RMK AO1 SLP166
     T01900126 57012





000
SAUS41 KCAR 251958
MTRGNR
METAR KGNR 251956Z AUTO VRB03KT 19/14 A3002 RMK AO1 SLP168 T01890139





000
SAUS41 KCAR 251958
MTRGNR
METAR KGNR 251956Z AUTO VRB03KT 19/14 A3002 RMK AO1 SLP168 T01890139





000
SAUS41 KCAR 251916
MTR40B
METAR K40B 251916Z AUTO VRB04KT 18/13 A3003 RMK AO1 SLP171
     T01790125 57011





000
SAUS41 KCAR 251857
MTRGNR
METAR KGNR 251856Z AUTO VRB03KT 17/14 A3003 RMK AO1 SLP172 T01720139





000
SAUS41 KCAR 251819
MTR40B
METAR K40B 251819Z AUTO VRB04G10KT 18/12 A3004 RMK AO1 SLP174
     T01790119 10183 20120 58008





000
SAUS41 KCAR 251819
MTR40B
METAR K40B 251819Z AUTO VRB04G10KT 18/12 A3004 RMK AO1 SLP174
     T01790119 10183 20120 58008





000
SAUS41 KCAR 251758
MTRGNR
METAR KGNR 251756Z AUTO 00000KT 16/13 A3004 RMK AO1 SLP174 T01560133
10156 20122 58007





000
SAUS41 KCAR 251758
MTRGNR
METAR KGNR 251756Z AUTO 00000KT 16/13 A3004 RMK AO1 SLP174 T01560133
10156 20122 58007





    US Dept of Commerce
    National Oceanic and Atmospheric Administration
    National Weather Service
    1325 East West Highway
    Silver Spring, MD 20910
    Page Author: NWS Internet Services Team
Disclaimer
Information Quality
Credits
Glossary
Privacy Policy
Freedom of Information Act (FOIA)
About Us
Career Opportunities